Latest Conditions
At L.F.Wade Int. Airport
Recorded at 10:25 pm
Showers
Temp.: 
25°C/76°F
Humidity: 
87%
Wind: 
WNW 23KT
or 26mph
UV Index: 
0
Island Observations
 
Observations
Saturday, August 19, 2017

Observations are in local time and taken at least once an hour, or upon the start and end of specified events such as showers and thunderstorms.

Time Sky / Weather Wind Speed/Gusts Temp. R.H. Pressure
     knots (mph)  °C (°F)  %  mb / "Hg
 22:25 Overcast Showers WNW 23/0 (26/0) 25(76) 87 1018 / 30.07
 21:55 Overcast Showers W 13/0 (15/0) 27(81) 84 1018 / 30.06
 20:55 Mostly Cloudy Showers W 11/0 (13/0) 26(80) 88 1018 / 30.06
 20:39 Mostly Cloudy Showers W 17/0 (20/0) 26(79) 88 1018 / 30.06
 20:32 Mostly Cloudy Showers WNW 18/0 (21/0) 26(79) 87 1018 / 30.06
 20:16 Mostly Cloudy Showers WNW 20/0 (23/0) 26(79) 83 1018 / 30.06
 19:55 Mostly Cloudy Showers WSW 15/0 (17/0) 28(83) 74 1018 / 30.05
 18:55 Mostly Cloudy  W 18/0 (21/0) 29(84) 72 1017 / 30.03
 17:55 Mostly Cloudy  WSW 18/0 (21/0) 29(85) 70 1017 / 30.04
 16:55 Mostly Cloudy  WSW 18/0 (21/0) 30(86) 68 1017 / 30.04
 15:55 Mostly Cloudy  W 20/0 (23/0) 30(86) 68 1018 / 30.05
 14:55 Mostly Cloudy  W 18/0 (21/0) 31(87) 63 1018 / 30.06
 13:55 Mostly Cloudy  W 17/0 (20/0) 31(87) 66 1018 / 30.06
 12:55 Mostly Cloudy  W 16/0 (18/0) 30(85) 68 1019 / 30.08
 11:55 Mostly Cloudy  WSW 15/0 (17/0) 30(87) 67 1018 / 30.07
 10:55 Partly Cloudy  W 16/0 (18/0) 30(86) 69 1019 / 30.08
 09:55 Mostly Cloudy  W 16/0 (18/0) 29(83) 71 1019 / 30.08
 08:55 Mostly Cloudy  WSW 16/0 (18/0) 29(84) 70 1018 / 30.07
 07:55 Few Clouds  WSW 14/0 (16/0) 28(83) 74 1018 / 30.07
 06:55 Few Clouds  WSW 14/0 (16/0) 28(82) 75 1018 / 30.05
 05:55 Partly Cloudy  WSW 13/0 (15/0) 28(82) 77 1017 / 30.04
 04:55 Few Clouds  WSW 13/0 (15/0) 28(82) 78 1017 / 30.04
 03:55 Few Clouds  WSW 13/0 (15/0) 28(82) 77 1017 / 30.04
 02:55 Few Clouds  WSW 13/0 (15/0) 28(82) 77 1018 / 30.05
 01:55 Partly Cloudy  WSW 14/0 (16/0) 28(82) 76 1018 / 30.07
 00:55 Partly Cloudy  WSW 13/0 (15/0) 28(82) 76 1018 / 30.07
 23:55 Partly Cloudy  WSW 12/0 (14/0) 28(83) 77 1019 / 30.09
 22:55 Partly Cloudy  WSW 13/0 (15/0) 28(83) 76 1019 / 30.09
 21:55 Mostly Cloudy  WSW 12/0 (14/0) 28(83) 78 1019 / 30.09
 20:55 Mostly Cloudy  WSW 13/0 (15/0) 28(83) 77 1019 / 30.08
 19:55 Mostly Cloudy  W 12/0 (14/0) 28(83) 76 1018 / 30.07
 18:55 Partly Cloudy  W 15/0 (17/0) 29(85) 74 1018 / 30.07
 17:55 Mostly Cloudy  W 16/0 (18/0) 30(86) 71 1018 / 30.07
 16:55 Mostly Cloudy  W 14/0 (16/0) 30(85) 73 1018 / 30.07
 15:55 Mostly Cloudy Showers W 20/0 (23/0) 30(87) 68 1019 / 30.08
 14:55 Mostly Cloudy  W 19/0 (22/0) 31(87) 68 1019 / 30.09
 13:55 Mostly Cloudy  W 20/0 (23/0) 31(87) 70 1019 / 30.09
 12:55 Mostly Cloudy  WSW 17/0 (20/0) 30(87) 69 1019 / 30.10
 11:55 Mostly Cloudy  W 17/0 (20/0) 30(86) 73 1019 / 30.10
 10:55 Mostly Cloudy  W 17/0 (20/0) 29(85) 75 1020 / 30.11
 10:04 Mostly Cloudy Showers WSW 11/0 (13/0) 28(83) 81 1020 / 30.11
 09:55 Mostly Cloudy Showers WSW 15/0 (17/0) 27(80) 87 1020 / 30.11
 09:22 Mostly Cloudy Showers W 18/0 (21/0) 27(81) 82 1020 / 30.11
 09:10 Mostly Cloudy Showers W 12/0 (14/0) 28(83) 80 1020 / 30.11
 08:55 Mostly Cloudy Showers WSW 18/0 (21/0) 26(79) 86 1020 / 30.11
 08:34 Mostly Cloudy Showers W 21/32 (24/37) 26(79) 87 1020 / 30.11
 08:09 Mostly Cloudy Showers W 14/0 (16/0) 27(80) 84 1020 / 30.11
 07:55 Mostly Cloudy Showers W 12/0 (14/0) 28(82) 83 1020 / 30.11
 07:32 Mostly Cloudy Showers W 15/0 (17/0) 26(79) 86 1019 / 30.10
 07:10 Mostly Cloudy Showers W 21/0 (24/0) 27(80) 82 1019 / 30.10
 06:55 Mostly Cloudy Showers WSW 13/0 (15/0) 28(83) 79 1019 / 30.08
 05:55 Mostly Cloudy  WSW 13/0 (15/0) 28(82) 78 1018 / 30.07
 05:04 Mostly Cloudy Showers WSW 14/0 (16/0) 28(82) 80 1018 / 30.06
 04:55 Mostly Cloudy Showers WSW 18/0 (21/0) 27(81) 80 1018 / 30.06
 03:55 Mostly Cloudy  WSW 14/0 (16/0) 28(82) 81 1018 / 30.07
 02:55 Partly Cloudy  WSW 13/0 (15/0) 28(82) 80 1018 / 30.07
 01:55 Mostly Cloudy Showers WSW 14/0 (16/0) 28(82) 78 1019 / 30.09
 00:55 Mostly Cloudy  W 15/0 (17/0) 28(82) 79 1019 / 30.10
 23:55 Partly Cloudy  WSW 13/0 (15/0) 28(83) 77 1020 / 30.11
 22:55 Mostly Cloudy  W 16/0 (18/0) 29(83) 76 1020 / 30.11
 21:55 Mostly Cloudy  W 21/0 (24/0) 29(84) 75 1019 / 30.10
 20:55 Mostly Cloudy  WSW 13/0 (15/0) 29(83) 78 1019 / 30.09
 19:55 Mostly Cloudy  W 17/0 (20/0) 29(84) 76 1019 / 30.09
 18:55 Mostly Cloudy  WSW 16/0 (18/0) 29(85) 72 1019 / 30.08
 18:16 Mostly Cloudy Showers W 14/0 (16/0) 29(84) 75 1018 / 30.07
 17:55 Mostly Cloudy Showers W 20/30 (23/35) 28(82) 78 1019 / 30.09
 17:33 Mostly Cloudy Showers W 20/0 (23/0) 28(82) 78 1019 / 30.09
 16:55 Mostly Cloudy  WSW 22/0 (25/0) 30(87) 66 1019 / 30.09
 15:55 Mostly Cloudy  WSW 22/0 (25/0) 31(88) 67 1019 / 30.09
 14:55 Mostly Cloudy  SW 22/0 (25/0) 30(87) 67 1019 / 30.09
 13:55 Mostly Cloudy  SW 21/0 (24/0) 31(87) 66 1020 / 30.11
 12:55 Mostly Cloudy  SW 21/0 (24/0) 31(88) 68 1020 / 30.11
 11:55 Mostly Cloudy  SW 21/0 (24/0) 31(87) 63 1020 / 30.12
 10:55 Mostly Cloudy  SW 21/0 (24/0) 30(87) 68 1020 / 30.12
 09:55 Mostly Cloudy  SW 20/0 (23/0) 30(86) 69 1020 / 30.12
 08:55 Mostly Cloudy  SW 20/0 (23/0) 29(85) 73 1020 / 30.12
 07:55 Mostly Cloudy  SSW 14/0 (16/0) 28(83) 76 1020 / 30.12
 06:55 Mostly Cloudy  SSW 13/0 (15/0) 28(83) 76 1020 / 30.11
 06:21 Mostly Cloudy Showers SSW 14/0 (16/0) 28(82) 71 1019 / 30.10
 06:14 Mostly Cloudy Showers SSW 17/0 (20/0) 28(82) 71 1019 / 30.10
 05:55 Mostly Cloudy  SSW 14/0 (16/0) 28(83) 73 1019 / 30.10
 05:26 Partly Cloudy Showers SSW 17/0 (20/0) 28(83) 74 1019 / 30.10
 05:15 Mostly Cloudy Showers SSW 12/0 (14/0) 28(82) 78 1019 / 30.10
 04:55 Mostly Cloudy Showers SSW 13/0 (15/0) 28(83) 77 1019 / 30.10
 04:22 Mostly Cloudy Showers SSW 13/0 (15/0) 28(82) 79 1019 / 30.10
 04:14 Mostly Cloudy Showers SSW 15/0 (17/0) 28(83) 75 1019 / 30.10
 03:55 Partly Cloudy  S 14/0 (16/0) 28(83) 76 1019 / 30.10
 02:55 Partly Cloudy  S 14/0 (16/0) 28(83) 75 1020 / 30.11
 01:55 Mostly Cloudy  S 13/0 (15/0) 28(83) 75 1020 / 30.12
 01:38 Mostly Cloudy  S 11/0 (13/0) 28(83) 78 1020 / 30.13
 00:55 Partly Cloudy  S 13/0 (15/0) 28(83) 76 1021 / 30.14
 23:55 Partly Cloudy  SSW 12/0 (14/0) 28(83) 76 1021 / 30.14
 22:55 Partly Cloudy  SSW 13/0 (15/0) 29(83) 76 1021 / 30.14
 21:55 Few Clouds  SSW 12/0 (14/0) 29(84) 77 1021 / 30.14
 20:55 Partly Cloudy  SSW 11/0 (13/0) 29(84) 76 1020 / 30.13
 19:55 Few Clouds  S 12/0 (14/0) 29(84) 74 1020 / 30.12
 18:55 Few Clouds  S 12/0 (14/0) 30(85) 70 1020 / 30.11
 17:55 Few Clouds  S 15/0 (17/0) 30(86) 69 1020 / 30.11
 16:55 Few Clouds Showers SSW 15/0 (17/0) 30(87) 64 1020 / 30.11
 15:55 Partly Cloudy  SSW 13/0 (15/0) 31(88) 67 1020 / 30.11
Observations from our AWOS sites are available here (password and username are both 'guest').